Terminal Aerodrome Forecast
Issued by NWS

Home | Current Version | Previous Version | Text Only | Print | Product List | Glossary On
Versions: 1 2 3 4 5 6 7 8 9 10 11 12 13 14 15 16 17 18 19
273
FTUS43 KAPX 281529 AAA
TAFMBL
TAF AMD
KMBL 281529Z 2815/2912 06006KT P6SM OVC008
      TEMPO 2815/2818 BKN015
     FM281800 36008KT P6SM SCT025 SCT250
     FM290500 05006KT P6SM FEW130=

USA.gov is the U.S. government's official web portal to all federal, state and local government web resources and services.